createdAt,value
2018-07-09T00:01:36.072Z,12.60
2018-07-09T00:04:04.538Z,12.60
2018-07-09T00:06:32.998Z,12.50
2018-07-09T00:09:01.458Z,12.60
2018-07-09T00:11:29.994Z,12.40
2018-07-09T00:13:58.457Z,12.20
2018-07-09T00:16:26.906Z,12.30
2018-07-09T00:18:55.357Z,12.30
2018-07-09T00:21:23.854Z,12.30
2018-07-09T00:23:52.306Z,12.20
2018-07-09T00:26:20.779Z,12.20
2018-07-09T00:28:49.267Z,12.20
2018-07-09T00:31:17.753Z,12.20
2018-07-09T00:33:46.206Z,12.30
2018-07-09T00:36:14.645Z,12.20
2018-07-09T00:38:43.090Z,12.20
2018-07-09T00:41:11.550Z,12.10
2018-07-09T00:43:40.062Z,12.10
2018-07-09T00:46:08.517Z,12.00
2018-07-09T00:48:37.009Z,12.00
2018-07-09T00:51:05.558Z,11.90
2018-07-09T00:53:34.378Z,11.90
2018-07-09T00:56:02.922Z,11.90
2018-07-09T00:58:31.349Z,11.90
2018-07-09T01:00:59.804Z,11.80
2018-07-09T01:03:28.223Z,11.70
2018-07-09T01:05:56.757Z,11.50
2018-07-09T01:08:25.195Z,11.50
2018-07-09T01:11:04.893Z,11.50
2018-07-09T01:13:39.872Z,11.50
2018-07-09T01:16:09.310Z,11.60
2018-07-09T01:18:37.774Z,11.50
2018-07-09T01:21:09.599Z,11.50
2018-07-09T01:23:38.522Z,11.50
2018-07-09T01:26:07.332Z,11.50
2018-07-09T01:28:36.658Z,11.40
2018-07-09T01:31:05.237Z,11.40
2018-07-09T01:33:33.667Z,11.30
2018-07-09T01:36:02.097Z,11.30
2018-07-09T01:38:30.542Z,11.20
2018-07-09T01:40:58.961Z,11.10
2018-07-09T01:43:27.369Z,11.20
2018-07-09T01:45:55.809Z,11.10
2018-07-09T01:48:24.246Z,11.10
2018-07-09T01:50:52.709Z,11.10
2018-07-09T01:55:49.244Z,11.10
2018-07-09T01:58:17.727Z,11.10
2018-07-09T02:00:46.163Z,11.00
2018-07-09T02:03:14.598Z,11.00
2018-07-09T02:08:11.159Z,11.00
2018-07-09T02:10:39.604Z,11.00
2018-07-09T02:13:08.073Z,10.90
2018-07-09T02:15:36.522Z,10.90
2018-07-09T02:18:05.170Z,10.80
2018-07-09T02:20:33.622Z,10.80
2018-07-09T02:23:02.086Z,10.70
2018-07-09T02:25:30.532Z,10.70
2018-07-09T02:27:58.974Z,10.70
2018-07-09T02:30:27.445Z,10.80
2018-07-09T02:32:55.909Z,10.70
2018-07-09T02:35:24.374Z,10.70
2018-07-09T02:37:52.806Z,10.70
2018-07-09T02:40:21.323Z,10.70
2018-07-09T02:42:49.814Z,10.60
2018-07-09T02:45:18.262Z,10.70
2018-07-09T02:47:47.131Z,10.70
2018-07-09T02:50:15.562Z,10.60
2018-07-09T02:52:44.063Z,10.70
2018-07-09T02:55:12.517Z,10.60
2018-07-09T02:57:41.016Z,10.60
2018-07-09T03:00:09.490Z,10.40
2018-07-09T03:02:37.964Z,10.40
2018-07-09T03:05:06.425Z,10.40
2018-07-09T03:07:34.915Z,10.40
2018-07-09T03:10:03.406Z,10.40
2018-07-09T03:12:31.870Z,10.50
2018-07-09T03:15:00.309Z,10.40
2018-07-09T03:19:56.974Z,10.50
2018-07-09T03:22:25.447Z,10.40
2018-07-09T03:24:53.886Z,10.30
2018-07-09T03:27:22.317Z,10.30
2018-07-09T03:29:50.782Z,10.30
2018-07-09T03:32:19.217Z,10.30
2018-07-09T03:34:47.650Z,10.20
2018-07-09T03:37:16.209Z,10.20
2018-07-09T03:39:44.687Z,10.20
2018-07-09T03:42:13.118Z,10.30
2018-07-09T03:44:41.551Z,10.40
2018-07-09T03:47:10.020Z,10.30
2018-07-09T03:49:38.462Z,10.30
2018-07-09T03:52:07.001Z,10.30
2018-07-09T03:54:35.470Z,10.30
2018-07-09T03:57:03.984Z,10.30
2018-07-09T03:59:32.478Z,10.30
2018-07-09T04:02:00.930Z,10.30
2018-07-09T04:04:29.378Z,10.40
2018-07-09T04:06:57.906Z,10.40
2018-07-09T04:09:26.778Z,10.40
2018-07-09T04:11:55.222Z,10.40
2018-07-09T04:14:23.677Z,10.40
2018-07-09T04:16:52.138Z,10.40
2018-07-09T04:19:20.579Z,10.40
2018-07-09T04:21:49.018Z,10.40
2018-07-09T04:24:17.469Z,10.50
2018-07-09T04:26:45.929Z,10.50
2018-07-09T04:29:14.377Z,10.60
2018-07-09T04:31:42.839Z,10.80
2018-07-09T04:34:11.321Z,10.80
2018-07-09T04:36:39.810Z,10.90
2018-07-09T04:39:08.677Z,10.90
2018-07-09T04:41:41.571Z,11.00
2018-07-09T04:44:11.329Z,11.10
2018-07-09T04:46:40.970Z,11.20
2018-07-09T04:51:38.854Z,11.40
2018-07-09T04:54:07.417Z,11.60
2018-07-09T04:56:35.865Z,11.70
2018-07-09T04:59:04.350Z,12.00
2018-07-09T05:01:32.821Z,12.40
2018-07-09T05:04:01.250Z,12.80
2018-07-09T05:06:29.665Z,13.30
2018-07-09T05:08:58.077Z,14.10
2018-07-09T05:11:26.517Z,15.50
2018-07-09T05:13:54.958Z,16.30
2018-07-09T05:16:23.377Z,17.10
2018-07-09T05:18:51.822Z,17.70
2018-07-09T05:21:20.277Z,17.90
2018-07-09T05:23:48.705Z,18.60
2018-07-09T05:26:17.145Z,19.10
2018-07-09T05:28:45.566Z,20.00
2018-07-09T05:31:13.977Z,20.00
2018-07-09T05:33:42.389Z,20.60
2018-07-09T05:36:10.817Z,20.90
2018-07-09T05:38:39.337Z,21.20
2018-07-09T05:41:07.819Z,21.70
2018-07-09T05:43:36.634Z,21.70
2018-07-09T05:46:05.494Z,22.00
2018-07-09T05:48:33.998Z,22.30
2018-07-09T05:51:02.474Z,22.20
2018-07-09T05:53:30.950Z,22.40
2018-07-09T05:55:59.382Z,22.40
2018-07-09T05:58:27.886Z,22.30
2018-07-09T06:00:56.371Z,22.80
2018-07-09T06:03:24.790Z,24.00
2018-07-09T06:05:53.241Z,23.70
2018-07-09T06:08:21.654Z,22.60
2018-07-09T06:10:50.083Z,23.30
2018-07-09T06:13:18.523Z,23.60
2018-07-09T06:15:46.947Z,23.80
2018-07-09T06:18:15.410Z,23.50
2018-07-09T06:20:43.870Z,24.20
2018-07-09T06:23:12.314Z,24.30
2018-07-09T06:25:40.869Z,24.10
2018-07-09T06:30:37.419Z,24.30
2018-07-09T06:33:05.838Z,24.00
2018-07-09T06:35:34.312Z,25.20
2018-07-09T06:38:02.734Z,24.60
2018-07-09T06:40:31.238Z,24.60
2018-07-09T06:42:59.704Z,24.70
2018-07-09T06:45:28.158Z,24.70
2018-07-09T06:47:56.613Z,25.00
2018-07-09T06:50:25.058Z,25.70
2018-07-09T06:52:53.543Z,25.00
2018-07-09T06:55:21.990Z,24.80
2018-07-09T06:57:50.410Z,25.60
2018-07-09T07:00:18.837Z,25.80
2018-07-09T07:02:47.261Z,25.30
2018-07-09T07:05:15.749Z,26.00
2018-07-09T07:07:44.214Z,26.20
2018-07-09T07:10:12.671Z,26.00
2018-07-09T07:12:41.159Z,25.60
2018-07-09T07:15:09.610Z,25.80
2018-07-09T07:17:38.064Z,26.40
2018-07-09T07:20:06.517Z,26.40
2018-07-09T07:22:34.961Z,25.90
2018-07-09T07:25:03.420Z,26.20
2018-07-09T07:27:31.853Z,26.50
2018-07-09T07:30:00.319Z,25.70
2018-07-09T07:32:28.753Z,25.60
2018-07-09T07:34:57.222Z,26.00
2018-07-09T07:37:25.725Z,26.70
2018-07-09T07:39:54.138Z,26.80
2018-07-09T07:42:22.588Z,27.50
2018-07-09T07:44:51.054Z,27.50
2018-07-09T07:47:19.498Z,27.70
2018-07-09T07:49:47.942Z,27.30
2018-07-09T07:52:16.410Z,27.50
2018-07-09T07:54:44.886Z,28.80
2018-07-09T07:57:13.297Z,28.10
2018-07-09T07:59:41.739Z,27.70
2018-07-09T08:02:10.186Z,27.60
2018-07-09T08:04:38.616Z,27.60
2018-07-09T08:07:07.086Z,27.50
2018-07-09T08:09:35.581Z,28.40
2018-07-09T08:14:34.300Z,28.50
2018-07-09T08:17:02.778Z,28.30
2018-07-09T08:19:31.223Z,28.40
2018-07-09T08:21:59.717Z,28.50
2018-07-09T08:24:28.147Z,29.30
2018-07-09T08:26:57.034Z,28.30
2018-07-09T08:29:25.609Z,29.20
2018-07-09T08:31:53.910Z,28.80
2018-07-09T08:34:22.497Z,28.80
2018-07-09T08:36:50.966Z,28.70
2018-07-09T08:39:19.446Z,29.30
2018-07-09T08:41:47.910Z,29.00
2018-07-09T08:44:16.386Z,28.60
2018-07-09T08:46:44.817Z,28.60
2018-07-09T08:49:13.266Z,29.40
2018-07-09T08:51:41.808Z,29.20
2018-07-09T08:54:10.341Z,28.10
2018-07-09T08:56:38.819Z,27.90
2018-07-09T08:59:07.278Z,28.40
2018-07-09T09:01:35.766Z,27.90
2018-07-09T09:04:04.225Z,28.20
2018-07-09T09:06:32.794Z,28.80
2018-07-09T09:09:01.249Z,29.70
2018-07-09T09:11:29.808Z,30.10
2018-07-09T09:13:58.253Z,30.50
2018-07-09T09:16:26.763Z,30.50
2018-07-09T09:18:55.262Z,30.00
2018-07-09T09:21:23.750Z,29.80
2018-07-09T09:23:52.269Z,30.10
2018-07-09T09:26:20.722Z,30.50
2018-07-09T09:28:49.485Z,29.40
2018-07-09T09:31:18.983Z,29.40
2018-07-09T09:33:47.506Z,29.50
2018-07-09T09:36:16.018Z,30.10
2018-07-09T09:38:44.493Z,29.30
2018-07-09T09:41:12.996Z,28.50
2018-07-09T09:43:41.489Z,28.00
2018-07-09T09:46:09.970Z,28.00
2018-07-09T09:48:38.432Z,26.30
2018-07-09T09:51:06.972Z,26.30
2018-07-09T09:53:35.487Z,25.80
2018-07-09T09:56:03.986Z,26.20
2018-07-09T09:58:32.429Z,27.00
2018-07-09T10:01:00.862Z,28.10
2018-07-09T10:03:29.314Z,28.40
2018-07-09T10:05:57.779Z,28.60
2018-07-09T10:08:26.294Z,29.50
2018-07-09T10:10:54.758Z,29.90
2018-07-09T10:13:23.229Z,30.70
2018-07-09T10:15:51.682Z,31.10
2018-07-09T10:18:20.155Z,30.40
2018-07-09T10:20:48.600Z,30.70
2018-07-09T10:23:18.148Z,31.20
2018-07-09T10:25:46.575Z,29.60
2018-07-09T10:28:15.074Z,29.90
2018-07-09T10:30:43.546Z,29.80
2018-07-09T10:33:12.042Z,29.80
2018-07-09T10:38:08.679Z,28.70
2018-07-09T10:40:37.129Z,29.40
2018-07-09T10:43:05.611Z,29.50
2018-07-09T10:45:34.069Z,28.40
2018-07-09T10:48:02.531Z,28.50
2018-07-09T10:50:31.072Z,29.10
2018-07-09T10:52:59.786Z,30.20
2018-07-09T10:55:28.234Z,30.00
2018-07-09T10:57:56.736Z,30.50
2018-07-09T11:00:25.202Z,30.20
2018-07-09T11:02:54.566Z,28.90
2018-07-09T11:05:23.086Z,28.10
2018-07-09T11:07:52.221Z,29.30
2018-07-09T11:10:20.698Z,28.90
2018-07-09T11:12:49.159Z,29.60
2018-07-09T11:15:17.817Z,29.80
2018-07-09T11:17:46.286Z,29.50
2018-07-09T11:20:14.734Z,28.30
2018-07-09T11:22:45.525Z,29.20
2018-07-09T11:25:13.960Z,29.30
2018-07-09T11:27:42.519Z,28.40
2018-07-09T11:30:11.183Z,27.60
2018-07-09T11:32:39.662Z,28.60
2018-07-09T11:35:08.166Z,28.30
2018-07-09T11:37:36.648Z,28.10
2018-07-09T11:40:05.294Z,27.30
2018-07-09T11:42:33.767Z,28.00
2018-07-09T11:45:02.260Z,28.20
2018-07-09T11:47:30.705Z,28.70
2018-07-09T11:49:59.390Z,28.50
2018-07-09T11:52:27.863Z,29.30
2018-07-09T11:54:56.375Z,29.10
2018-07-09T11:57:24.841Z,30.10
2018-07-09T11:59:53.317Z,31.00
2018-07-09T12:02:21.791Z,31.10
2018-07-09T12:04:50.283Z,30.10
2018-07-09T12:07:18.702Z,29.20
2018-07-09T12:09:47.185Z,28.40
2018-07-09T12:12:15.742Z,28.10
2018-07-09T12:14:44.223Z,28.20
2018-07-09T12:17:12.677Z,28.30
2018-07-09T12:19:41.164Z,29.00
2018-07-09T12:22:09.653Z,28.50
2018-07-09T12:24:38.121Z,27.50
2018-07-09T12:27:06.574Z,27.20
2018-07-09T12:29:35.002Z,27.30
2018-07-09T12:32:03.445Z,26.90
2018-07-09T12:34:31.947Z,26.60
2018-07-09T12:37:00.418Z,26.40
2018-07-09T12:39:29.045Z,26.50
2018-07-09T12:41:57.494Z,26.00
2018-07-09T12:44:25.979Z,26.20
2018-07-09T12:46:54.472Z,26.40
2018-07-09T12:49:22.902Z,26.90
2018-07-09T12:51:51.377Z,27.80
2018-07-09T12:54:19.872Z,28.40
2018-07-09T12:56:48.345Z,28.60
2018-07-09T12:59:16.816Z,28.70
2018-07-09T13:01:45.301Z,28.40
2018-07-09T13:04:13.710Z,27.00
2018-07-09T13:06:43.021Z,27.00
2018-07-09T13:09:11.466Z,26.60
2018-07-09T13:11:40.082Z,26.50
2018-07-09T13:14:08.648Z,26.50
2018-07-09T13:16:37.105Z,26.10
2018-07-09T13:19:05.573Z,26.20
2018-07-09T13:21:34.097Z,26.40
2018-07-09T13:24:02.630Z,26.60
2018-07-09T13:26:31.133Z,26.80
2018-07-09T13:28:59.869Z,26.70
2018-07-09T13:31:28.861Z,27.10
2018-07-09T13:33:57.683Z,27.00
2018-07-09T13:36:31.390Z,27.00
2018-07-09T13:38:59.842Z,26.50
2018-07-09T13:41:28.390Z,26.10
2018-07-09T13:43:57.025Z,26.60
2018-07-09T13:46:25.548Z,26.90
2018-07-09T13:48:54.014Z,26.70
2018-07-09T13:51:22.514Z,26.70
2018-07-09T13:53:50.994Z,26.60
2018-07-09T13:56:19.454Z,26.60
2018-07-09T13:58:48.007Z,27.00
2018-07-09T14:01:16.438Z,27.10
2018-07-09T14:03:44.874Z,26.70
2018-07-09T14:06:13.340Z,26.50
2018-07-09T14:08:41.762Z,26.50
2018-07-09T14:11:10.242Z,26.00
2018-07-09T14:13:38.679Z,26.20
2018-07-09T14:16:07.239Z,26.10
2018-07-09T14:18:35.697Z,25.90
2018-07-09T14:21:04.210Z,26.20
2018-07-09T14:23:32.667Z,26.30
2018-07-09T14:26:01.142Z,26.10
2018-07-09T14:28:29.690Z,26.10
2018-07-09T14:30:58.118Z,25.40
2018-07-09T14:33:26.549Z,25.20
2018-07-09T14:35:55.022Z,25.20
2018-07-09T14:38:23.454Z,25.30
2018-07-09T14:40:51.877Z,25.40
2018-07-09T14:43:20.317Z,25.20
2018-07-09T14:45:48.786Z,25.50
2018-07-09T14:48:17.206Z,26.00
2018-07-09T14:50:45.661Z,26.40
2018-07-09T14:53:14.090Z,26.50
2018-07-09T14:55:42.544Z,26.30
2018-07-09T14:58:10.970Z,26.40
2018-07-09T15:00:39.394Z,26.00
2018-07-09T15:03:07.821Z,25.40
2018-07-09T15:05:36.281Z,25.40
2018-07-09T15:08:04.738Z,25.40
2018-07-09T15:10:33.173Z,25.10
2018-07-09T15:13:01.596Z,25.00
2018-07-09T15:15:30.030Z,24.80
2018-07-09T15:17:58.469Z,24.80
2018-07-09T15:20:26.890Z,24.80
2018-07-09T15:22:55.332Z,24.80
2018-07-09T15:25:23.770Z,24.80
2018-07-09T15:27:52.242Z,24.80
2018-07-09T15:30:20.694Z,24.80
2018-07-09T15:32:49.210Z,24.60
2018-07-09T15:35:18.407Z,24.60
2018-07-09T15:37:46.826Z,24.80
2018-07-09T15:40:15.303Z,25.00
2018-07-09T15:42:43.790Z,25.10
2018-07-09T15:45:12.261Z,24.80
2018-07-09T15:47:40.705Z,24.90
2018-07-09T15:50:09.670Z,25.20
2018-07-09T15:52:38.969Z,25.40
2018-07-09T15:55:07.974Z,25.20
2018-07-09T15:57:37.068Z,25.00
2018-07-09T16:00:06.374Z,24.80
2018-07-09T16:02:35.415Z,24.50
2018-07-09T16:05:04.217Z,24.40
2018-07-09T16:07:33.284Z,24.40
2018-07-09T16:10:02.258Z,24.50
2018-07-09T16:12:31.313Z,24.30
2018-07-09T16:15:00.586Z,24.20
2018-07-09T16:17:29.474Z,24.30
2018-07-09T16:19:58.794Z,24.40
2018-07-09T16:24:56.882Z,24.60
2018-07-09T16:27:26.639Z,24.60
2018-07-09T16:29:55.881Z,24.20
2018-07-09T16:32:25.763Z,24.10
2018-07-09T16:34:55.201Z,24.10
2018-07-09T16:37:24.768Z,24.10
2018-07-09T16:39:54.624Z,24.50
2018-07-09T16:42:29.839Z,24.30
2018-07-09T16:44:59.314Z,24.20
2018-07-09T16:47:28.230Z,24.20
2018-07-09T16:49:57.313Z,24.10
2018-07-09T16:52:26.470Z,24.20
2018-07-09T16:54:55.551Z,24.30
2018-07-09T16:57:24.808Z,24.10
2018-07-09T16:59:54.497Z,24.20
2018-07-09T17:02:25.146Z,24.20
2018-07-09T17:04:54.390Z,24.20
2018-07-09T17:07:23.645Z,24.00
2018-07-09T17:09:55.006Z,23.70
2018-07-09T17:12:24.897Z,23.70
2018-07-09T17:14:54.235Z,23.70
2018-07-09T17:17:24.545Z,23.60
2018-07-09T17:19:54.951Z,23.80
2018-07-09T17:22:24.852Z,23.70
2018-07-09T17:24:55.705Z,23.80
2018-07-09T17:27:24.593Z,23.70
2018-07-09T17:29:53.140Z,23.50
2018-07-09T17:32:21.642Z,23.30
2018-07-09T17:34:50.256Z,23.20
2018-07-09T17:37:37.641Z,23.20
2018-07-09T17:40:07.279Z,23.10
2018-07-09T17:42:36.304Z,23.00
2018-07-09T17:45:05.382Z,23.00
2018-07-09T17:47:33.813Z,23.00
2018-07-09T17:50:02.285Z,23.00
2018-07-09T17:52:30.906Z,22.90
2018-07-09T17:54:59.354Z,22.90
2018-07-09T17:57:27.813Z,22.90
2018-07-09T17:59:56.235Z,22.80
2018-07-09T18:02:24.711Z,22.80
2018-07-09T18:04:53.149Z,22.70
2018-07-09T18:07:21.734Z,22.70
2018-07-09T18:09:50.207Z,22.70
2018-07-09T18:12:18.694Z,22.70
2018-07-09T18:14:48.621Z,22.70
2018-07-09T18:17:17.112Z,22.70
2018-07-09T18:19:45.621Z,22.60
2018-07-09T18:22:14.027Z,22.60
2018-07-09T18:24:42.482Z,22.50
2018-07-09T18:27:11.314Z,22.50
2018-07-09T18:29:45.326Z,22.60
2018-07-09T18:32:16.389Z,22.60
2018-07-09T18:34:45.844Z,22.50
2018-07-09T18:37:16.520Z,22.40
2018-07-09T18:39:45.045Z,22.30
2018-07-09T18:42:13.488Z,22.20
2018-07-09T18:44:46.893Z,22.20
2018-07-09T18:47:15.422Z,22.20
2018-07-09T18:49:43.853Z,22.20
2018-07-09T18:52:12.362Z,22.10
2018-07-09T18:54:41.469Z,22.20
2018-07-09T18:57:09.926Z,22.10
2018-07-09T18:59:38.434Z,22.10
2018-07-09T19:02:07.804Z,22.00
2018-07-09T19:04:36.500Z,21.80
2018-07-09T19:09:36.898Z,21.70
2018-07-09T19:12:06.922Z,21.70
2018-07-09T19:14:38.795Z,21.60
2018-07-09T19:18:24.364Z,21.50
2018-07-09T19:22:00.090Z,21.50
2018-07-09T19:24:32.606Z,21.40
2018-07-09T19:27:00.890Z,21.40
2018-07-09T19:29:28.688Z,21.30
2018-07-09T19:31:56.249Z,21.30
2018-07-09T19:34:23.560Z,21.30
2018-07-09T19:36:50.969Z,21.20
2018-07-09T19:39:18.462Z,21.20
2018-07-09T19:41:46.054Z,21.10
2018-07-09T19:44:13.641Z,21.00
2018-07-09T19:46:41.189Z,20.90
2018-07-09T19:49:08.640Z,20.90
2018-07-09T19:51:36.143Z,20.80
2018-07-09T19:54:03.699Z,20.70
2018-07-09T19:56:31.192Z,20.70
2018-07-09T19:58:58.693Z,20.60
2018-07-09T20:01:26.145Z,20.50
2018-07-09T20:03:53.700Z,20.40
2018-07-09T20:06:21.090Z,20.30
2018-07-09T20:08:53.984Z,20.20
2018-07-09T20:11:26.617Z,20.20
2018-07-09T20:14:08.095Z,20.10
2018-07-09T20:16:40.863Z,20.20
2018-07-09T20:19:09.154Z,20.10
2018-07-09T20:24:04.680Z,20.00
2018-07-09T20:26:32.436Z,20.00
2018-07-09T20:28:59.994Z,19.90
2018-07-09T20:31:27.505Z,19.90
2018-07-09T20:33:54.976Z,19.90
2018-07-09T20:36:22.386Z,19.80
2018-07-09T20:38:49.914Z,19.80
2018-07-09T20:41:17.410Z,19.70
2018-07-09T20:43:44.874Z,19.70
2018-07-09T20:46:12.334Z,19.70
2018-07-09T20:48:39.894Z,19.70
2018-07-09T20:51:07.320Z,19.60
2018-07-09T20:53:34.880Z,19.40
2018-07-09T20:56:02.342Z,19.40
2018-07-09T20:58:29.685Z,19.30
2018-07-09T21:00:57.005Z,19.30
2018-07-09T21:03:25.306Z,19.30
2018-07-09T21:05:52.638Z,19.30
2018-07-09T21:08:20.056Z,19.20
2018-07-09T21:10:47.542Z,19.20
2018-07-09T21:13:14.857Z,19.10
2018-07-09T21:15:42.263Z,19.00
2018-07-09T21:18:09.532Z,19.00
2018-07-09T21:20:37.939Z,19.00
2018-07-09T21:23:05.326Z,19.10
2018-07-09T21:25:32.670Z,19.10
2018-07-09T21:28:00.019Z,19.00
2018-07-09T21:30:27.379Z,18.90
2018-07-09T21:32:54.714Z,19.00
2018-07-09T21:35:22.071Z,19.10
2018-07-09T21:37:49.506Z,19.20
2018-07-09T21:40:16.759Z,19.20
2018-07-09T21:42:44.108Z,19.20
2018-07-09T21:45:11.426Z,19.20
2018-07-09T21:47:38.758Z,19.20
2018-07-09T21:50:16.343Z,19.10
2018-07-09T21:52:43.685Z,19.10
2018-07-09T21:55:10.997Z,19.00
2018-07-09T21:57:38.383Z,18.90
2018-07-09T22:00:05.724Z,18.90
2018-07-09T22:02:33.119Z,18.90
2018-07-09T22:05:00.449Z,18.90
2018-07-09T22:07:27.831Z,18.90
2018-07-09T22:09:55.097Z,18.90
2018-07-09T22:12:22.413Z,18.90
2018-07-09T22:14:49.808Z,18.80
2018-07-09T22:17:17.154Z,18.70
2018-07-09T22:19:44.462Z,18.70
2018-07-09T22:22:11.835Z,18.70
2018-07-09T22:24:39.200Z,18.70
2018-07-09T22:27:06.533Z,18.70
2018-07-09T22:29:33.856Z,18.80
2018-07-09T22:32:04.006Z,18.70
2018-07-09T22:34:32.525Z,18.60
2018-07-09T22:37:01.067Z,18.60
2018-07-09T22:39:29.573Z,18.50
2018-07-09T22:41:58.052Z,18.50
2018-07-09T22:44:26.525Z,18.50
2018-07-09T22:46:54.974Z,18.50
2018-07-09T22:49:23.461Z,18.50
2018-07-09T22:51:52.015Z,18.50
2018-07-09T22:54:20.466Z,18.50
2018-07-09T22:56:48.929Z,18.50
2018-07-09T22:59:17.384Z,18.40
2018-07-09T23:01:45.909Z,18.30
2018-07-09T23:04:14.402Z,18.30
2018-07-09T23:06:42.881Z,18.20
2018-07-09T23:10:23.693Z,18.20
2018-07-09T23:13:17.891Z,18.30
2018-07-09T23:18:01.419Z,18.20
2018-07-09T23:20:54.912Z,18.10
2018-07-09T23:23:22.265Z,18.20
2018-07-09T23:25:49.594Z,18.20
2018-07-09T23:28:16.951Z,18.10
2018-07-09T23:30:44.304Z,18.00
2018-07-09T23:33:11.638Z,18.00
2018-07-09T23:35:38.957Z,18.10
2018-07-09T23:38:06.274Z,18.00
2018-07-09T23:40:33.594Z,18.00
2018-07-09T23:43:00.922Z,18.00
2018-07-09T23:45:28.262Z,18.00
2018-07-09T23:47:55.603Z,18.00
2018-07-09T23:50:22.937Z,18.10
2018-07-09T23:52:50.253Z,18.00
2018-07-09T23:55:17.572Z,18.00
2018-07-09T23:59:59.970Z,17.90
